sensor_id;sensor_type;location;lat;lon;timestamp;P1;durP1;ratioP1;P2;durP2;ratioP2
12110;SDS011;6119;52.372;8.990;2024-01-15T00:01:26;7.40;;;5.27;;
12110;SDS011;6119;52.372;8.990;2024-01-15T00:04:13;8.83;;;6.33;;
12110;SDS011;6119;52.372;8.990;2024-01-15T00:06:59;7.77;;;5.43;;
12110;SDS011;6119;52.372;8.990;2024-01-15T00:09:46;8.57;;;5.33;;
12110;SDS011;6119;52.372;8.990;2024-01-15T00:12:33;9.03;;;5.47;;
12110;SDS011;6119;52.372;8.990;2024-01-15T00:15:21;8.17;;;5.20;;
12110;SDS011;6119;52.372;8.990;2024-01-15T00:18:08;8.73;;;4.60;;
12110;SDS011;6119;52.372;8.990;2024-01-15T00:20:56;6.83;;;4.67;;
12110;SDS011;6119;52.372;8.990;2024-01-15T00:23:42;5.20;;;3.37;;
12110;SDS011;6119;52.372;8.990;2024-01-15T00:26:29;9.47;;;4.67;;
12110;SDS011;6119;52.372;8.990;2024-01-15T00:29:16;8.30;;;4.87;;
12110;SDS011;6119;52.372;8.990;2024-01-15T00:32:05;6.27;;;3.87;;
12110;SDS011;6119;52.372;8.990;2024-01-15T00:34:52;5.40;;;3.37;;
12110;SDS011;6119;52.372;8.990;2024-01-15T00:37:38;6.13;;;3.43;;
12110;SDS011;6119;52.372;8.990;2024-01-15T00:40:25;7.70;;;3.43;;
12110;SDS011;6119;52.372;8.990;2024-01-15T00:43:12;6.03;;;3.17;;
12110;SDS011;6119;52.372;8.990;2024-01-15T00:46:01;6.17;;;2.93;;
12110;SDS011;6119;52.372;8.990;2024-01-15T00:48:49;5.87;;;2.80;;
12110;SDS011;6119;52.372;8.990;2024-01-15T00:51:36;7.07;;;2.80;;
12110;SDS011;6119;52.372;8.990;2024-01-15T00:54:22;5.63;;;2.30;;
12110;SDS011;6119;52.372;8.990;2024-01-15T00:57:09;7.33;;;2.70;;
12110;SDS011;6119;52.372;8.990;2024-01-15T00:59:55;7.07;;;2.70;;
12110;SDS011;6119;52.372;8.990;2024-01-15T01:02:42;6.43;;;2.87;;
12110;SDS011;6119;52.372;8.990;2024-01-15T01:05:30;5.63;;;2.60;;
12110;SDS011;6119;52.372;8.990;2024-01-15T01:08:16;4.50;;;2.60;;
12110;SDS011;6119;52.372;8.990;2024-01-15T01:11:03;8.90;;;2.90;;
12110;SDS011;6119;52.372;8.990;2024-01-15T01:13:51;4.83;;;2.97;;
12110;SDS011;6119;52.372;8.990;2024-01-15T01:16:38;9.40;;;3.10;;
12110;SDS011;6119;52.372;8.990;2024-01-15T01:19:24;5.87;;;2.53;;
12110;SDS011;6119;52.372;8.990;2024-01-15T01:22:13;7.20;;;2.90;;
12110;SDS011;6119;52.372;8.990;2024-01-15T01:24:59;5.17;;;2.43;;
12110;SDS011;6119;52.372;8.990;2024-01-15T01:27:46;7.50;;;2.57;;
12110;SDS011;6119;52.372;8.990;2024-01-15T01:30:32;5.00;;;1.90;;
12110;SDS011;6119;52.372;8.990;2024-01-15T01:33:19;10.07;;;2.43;;
12110;SDS011;6119;52.372;8.990;2024-01-15T01:36:07;7.93;;;2.63;;
12110;SDS011;6119;52.372;8.990;2024-01-15T01:38:56;6.27;;;2.27;;
12110;SDS011;6119;52.372;8.990;2024-01-15T01:41:42;4.87;;;2.50;;
12110;SDS011;6119;52.372;8.990;2024-01-15T01:44:29;6.57;;;2.50;;
12110;SDS011;6119;52.372;8.990;2024-01-15T01:47:16;7.00;;;1.80;;
12110;SDS011;6119;52.372;8.990;2024-01-15T01:50:03;9.10;;;2.10;;
12110;SDS011;6119;52.372;8.990;2024-01-15T01:52:50;6.63;;;1.60;;
12110;SDS011;6119;52.372;8.990;2024-01-15T01:55:39;6.10;;;2.13;;
12110;SDS011;6119;52.372;8.990;2024-01-15T01:58:26;4.33;;;1.50;;
12110;SDS011;6119;52.372;8.990;2024-01-15T02:01:14;6.07;;;1.80;;
12110;SDS011;6119;52.372;8.990;2024-01-15T02:04:02;7.77;;;2.00;;
12110;SDS011;6119;52.372;8.990;2024-01-15T02:06:50;7.17;;;1.60;;
12110;SDS011;6119;52.372;8.990;2024-01-15T02:09:37;4.37;;;1.40;;
12110;SDS011;6119;52.372;8.990;2024-01-15T02:12:25;4.93;;;1.43;;
12110;SDS011;6119;52.372;8.990;2024-01-15T02:15:12;8.37;;;1.60;;
12110;SDS011;6119;52.372;8.990;2024-01-15T02:17:59;3.73;;;1.20;;
12110;SDS011;6119;52.372;8.990;2024-01-15T02:20:47;3.97;;;1.60;;
12110;SDS011;6119;52.372;8.990;2024-01-15T02:23:35;9.73;;;1.47;;
12110;SDS011;6119;52.372;8.990;2024-01-15T02:26:21;5.20;;;1.60;;
12110;SDS011;6119;52.372;8.990;2024-01-15T02:29:08;10.70;;;1.83;;
12110;SDS011;6119;52.372;8.990;2024-01-15T02:31:56;3.47;;;1.30;;
12110;SDS011;6119;52.372;8.990;2024-01-15T02:34:43;6.57;;;1.40;;
12110;SDS011;6119;52.372;8.990;2024-01-15T02:37:30;5.83;;;1.27;;
12110;SDS011;6119;52.372;8.990;2024-01-15T02:40:17;3.73;;;1.37;;
12110;SDS011;6119;52.372;8.990;2024-01-15T02:43:04;6.30;;;0.97;;
12110;SDS011;6119;52.372;8.990;2024-01-15T02:45:50;4.43;;;1.20;;
12110;SDS011;6119;52.372;8.990;2024-01-15T02:48:37;4.63;;;1.63;;
12110;SDS011;6119;52.372;8.990;2024-01-15T02:51:24;3.17;;;1.10;;
12110;SDS011;6119;52.372;8.990;2024-01-15T02:54:11;3.07;;;1.07;;
12110;SDS011;6119;52.372;8.990;2024-01-15T02:56:59;7.43;;;1.67;;
12110;SDS011;6119;52.372;8.990;2024-01-15T02:59:48;6.50;;;1.60;;
12110;SDS011;6119;52.372;8.990;2024-01-15T03:02:36;9.00;;;1.83;;
12110;SDS011;6119;52.372;8.990;2024-01-15T03:05:27;6.73;;;1.80;;
12110;SDS011;6119;52.372;8.990;2024-01-15T03:08:14;2.83;;;1.00;;
12110;SDS011;6119;52.372;8.990;2024-01-15T03:11:00;4.60;;;1.13;;
12110;SDS011;6119;52.372;8.990;2024-01-15T03:13:48;9.27;;;1.77;;
12110;SDS011;6119;52.372;8.990;2024-01-15T03:16:35;7.43;;;1.30;;
12110;SDS011;6119;52.372;8.990;2024-01-15T03:19:21;3.13;;;1.20;;
12110;SDS011;6119;52.372;8.990;2024-01-15T03:22:08;9.40;;;1.60;;
12110;SDS011;6119;52.372;8.990;2024-01-15T03:24:55;10.87;;;1.83;;
12110;SDS011;6119;52.372;8.990;2024-01-15T03:27:41;5.93;;;1.43;;
12110;SDS011;6119;52.372;8.990;2024-01-15T03:30:30;4.80;;;1.57;;
12110;SDS011;6119;52.372;8.990;2024-01-15T03:33:16;5.37;;;2.40;;
12110;SDS011;6119;52.372;8.990;2024-01-15T03:36:04;3.00;;;1.10;;
12110;SDS011;6119;52.372;8.990;2024-01-15T03:38:51;3.57;;;1.30;;
12110;SDS011;6119;52.372;8.990;2024-01-15T03:41:37;6.23;;;1.63;;
12110;SDS011;6119;52.372;8.990;2024-01-15T03:44:24;4.27;;;1.60;;
12110;SDS011;6119;52.372;8.990;2024-01-15T03:47:12;5.50;;;0.90;;
12110;SDS011;6119;52.372;8.990;2024-01-15T03:49:59;5.63;;;1.47;;
12110;SDS011;6119;52.372;8.990;2024-01-15T03:52:45;2.83;;;1.03;;
12110;SDS011;6119;52.372;8.990;2024-01-15T03:55:32;6.33;;;1.70;;
12110;SDS011;6119;52.372;8.990;2024-01-15T03:58:18;7.30;;;1.40;;
12110;SDS011;6119;52.372;8.990;2024-01-15T04:01:07;4.50;;;1.40;;
12110;SDS011;6119;52.372;8.990;2024-01-15T04:03:56;8.70;;;1.67;;
12110;SDS011;6119;52.372;8.990;2024-01-15T04:06:43;4.90;;;1.33;;
12110;SDS011;6119;52.372;8.990;2024-01-15T04:09:30;3.60;;;1.10;;
12110;SDS011;6119;52.372;8.990;2024-01-15T04:12:17;5.20;;;1.03;;
12110;SDS011;6119;52.372;8.990;2024-01-15T04:15:04;2.93;;;0.97;;
12110;SDS011;6119;52.372;8.990;2024-01-15T04:17:51;4.87;;;1.40;;
12110;SDS011;6119;52.372;8.990;2024-01-15T04:20:39;7.13;;;1.40;;
12110;SDS011;6119;52.372;8.990;2024-01-15T04:23:26;11.00;;;1.70;;
12110;SDS011;6119;52.372;8.990;2024-01-15T04:26:12;3.50;;;1.70;;
12110;SDS011;6119;52.372;8.990;2024-01-15T04:28:59;5.27;;;1.13;;
12110;SDS011;6119;52.372;8.990;2024-01-15T04:31:46;4.70;;;1.30;;
12110;SDS011;6119;52.372;8.990;2024-01-15T04:34:33;6.77;;;1.40;;
12110;SDS011;6119;52.372;8.990;2024-01-15T04:37:21;4.80;;;1.10;;
12110;SDS011;6119;52.372;8.990;2024-01-15T04:40:08;4.93;;;1.30;;
12110;SDS011;6119;52.372;8.990;2024-01-15T04:42:55;5.07;;;1.10;;
12110;SDS011;6119;52.372;8.990;2024-01-15T04:45:42;4.13;;;1.20;;
12110;SDS011;6119;52.372;8.990;2024-01-15T04:48:29;7.97;;;1.47;;
12110;SDS011;6119;52.372;8.990;2024-01-15T04:51:16;5.07;;;1.30;;
12110;SDS011;6119;52.372;8.990;2024-01-15T04:54:04;3.93;;;1.33;;
12110;SDS011;6119;52.372;8.990;2024-01-15T04:56:51;3.17;;;1.07;;
12110;SDS011;6119;52.372;8.990;2024-01-15T04:59:37;6.37;;;1.30;;
12110;SDS011;6119;52.372;8.990;2024-01-15T05:02:24;6.13;;;1.33;;
12110;SDS011;6119;52.372;8.990;2024-01-15T05:05:11;2.80;;;1.40;;
12110;SDS011;6119;52.372;8.990;2024-01-15T05:07:59;6.83;;;2.33;;
12110;SDS011;6119;52.372;8.990;2024-01-15T05:10:47;29.60;;;5.23;;
12110;SDS011;6119;52.372;8.990;2024-01-15T05:13:33;34.77;;;11.57;;
12110;SDS011;6119;52.372;8.990;2024-01-15T05:16:20;15.50;;;6.73;;
12110;SDS011;6119;52.372;8.990;2024-01-15T05:19:07;18.63;;;6.60;;
12110;SDS011;6119;52.372;8.990;2024-01-15T05:21:54;15.87;;;7.30;;
12110;SDS011;6119;52.372;8.990;2024-01-15T05:24:40;20.63;;;8.23;;
12110;SDS011;6119;52.372;8.990;2024-01-15T05:27:28;11.93;;;4.43;;
12110;SDS011;6119;52.372;8.990;2024-01-15T05:30:15;15.07;;;4.20;;
12110;SDS011;6119;52.372;8.990;2024-01-15T05:33:03;11.33;;;3.17;;
12110;SDS011;6119;52.372;8.990;2024-01-15T05:35:50;11.57;;;4.80;;
12110;SDS011;6119;52.372;8.990;2024-01-15T05:38:38;8.90;;;1.90;;
12110;SDS011;6119;52.372;8.990;2024-01-15T05:41:25;8.90;;;3.53;;
12110;SDS011;6119;52.372;8.990;2024-01-15T05:44:13;6.07;;;1.30;;
12110;SDS011;6119;52.372;8.990;2024-01-15T05:46:59;6.70;;;1.90;;
12110;SDS011;6119;52.372;8.990;2024-01-15T05:49:45;4.37;;;1.40;;
12110;SDS011;6119;52.372;8.990;2024-01-15T05:52:33;3.83;;;1.10;;
12110;SDS011;6119;52.372;8.990;2024-01-15T05:55:19;2.70;;;1.23;;
12110;SDS011;6119;52.372;8.990;2024-01-15T05:58:06;9.30;;;1.83;;
12110;SDS011;6119;52.372;8.990;2024-01-15T06:00:54;7.60;;;1.43;;
12110;SDS011;6119;52.372;8.990;2024-01-15T06:03:41;6.17;;;1.90;;
12110;SDS011;6119;52.372;8.990;2024-01-15T06:06:27;6.17;;;2.23;;
12110;SDS011;6119;52.372;8.990;2024-01-15T06:09:14;4.93;;;1.40;;
12110;SDS011;6119;52.372;8.990;2024-01-15T06:12:00;7.63;;;1.57;;
12110;SDS011;6119;52.372;8.990;2024-01-15T06:14:47;3.03;;;1.27;;
12110;SDS011;6119;52.372;8.990;2024-01-15T06:17:35;4.20;;;1.30;;
12110;SDS011;6119;52.372;8.990;2024-01-15T06:20:23;7.40;;;1.37;;
12110;SDS011;6119;52.372;8.990;2024-01-15T06:23:09;6.97;;;1.23;;
12110;SDS011;6119;52.372;8.990;2024-01-15T06:25:56;2.97;;;1.37;;
12110;SDS011;6119;52.372;8.990;2024-01-15T06:28:43;6.93;;;1.30;;
12110;SDS011;6119;52.372;8.990;2024-01-15T06:31:29;4.90;;;1.10;;
12110;SDS011;6119;52.372;8.990;2024-01-15T06:34:18;4.33;;;1.13;;
12110;SDS011;6119;52.372;8.990;2024-01-15T06:37:05;6.33;;;1.43;;
12110;SDS011;6119;52.372;8.990;2024-01-15T06:39:51;4.67;;;1.10;;
12110;SDS011;6119;52.372;8.990;2024-01-15T06:42:38;2.87;;;1.17;;
12110;SDS011;6119;52.372;8.990;2024-01-15T06:45:24;5.90;;;1.00;;
12110;SDS011;6119;52.372;8.990;2024-01-15T06:48:11;2.50;;;1.17;;
12110;SDS011;6119;52.372;8.990;2024-01-15T06:51:00;6.83;;;1.30;;
12110;SDS011;6119;52.372;8.990;2024-01-15T06:53:47;6.80;;;1.40;;
12110;SDS011;6119;52.372;8.990;2024-01-15T06:56:34;4.33;;;1.43;;
12110;SDS011;6119;52.372;8.990;2024-01-15T06:59:20;20.47;;;5.17;;
12110;SDS011;6119;52.372;8.990;2024-01-15T07:02:07;3.87;;;0.90;;
12110;SDS011;6119;52.372;8.990;2024-01-15T07:04:53;5.97;;;1.27;;
12110;SDS011;6119;52.372;8.990;2024-01-15T07:07:41;2.80;;;1.13;;
12110;SDS011;6119;52.372;8.990;2024-01-15T07:10:28;6.13;;;1.50;;
12110;SDS011;6119;52.372;8.990;2024-01-15T07:13:17;6.33;;;1.33;;
12110;SDS011;6119;52.372;8.990;2024-01-15T07:16:04;3.13;;;1.00;;
12110;SDS011;6119;52.372;8.990;2024-01-15T07:18:51;5.43;;;1.23;;
12110;SDS011;6119;52.372;8.990;2024-01-15T07:21:39;3.13;;;1.43;;
12110;SDS011;6119;52.372;8.990;2024-01-15T07:24:29;1.60;;;1.17;;
12110;SDS011;6119;52.372;8.990;2024-01-15T07:27:16;6.40;;;1.57;;
12110;SDS011;6119;52.372;8.990;2024-01-15T07:30:03;3.43;;;1.30;;
12110;SDS011;6119;52.372;8.990;2024-01-15T07:32:51;4.17;;;2.00;;
12110;SDS011;6119;52.372;8.990;2024-01-15T07:35:39;2.13;;;1.40;;
12110;SDS011;6119;52.372;8.990;2024-01-15T07:38:26;5.67;;;1.30;;
12110;SDS011;6119;52.372;8.990;2024-01-15T07:41:14;2.43;;;1.13;;
12110;SDS011;6119;52.372;8.990;2024-01-15T07:44:01;18.93;;;5.27;;
12110;SDS011;6119;52.372;8.990;2024-01-15T07:46:48;2.73;;;1.07;;
12110;SDS011;6119;52.372;8.990;2024-01-15T07:49:35;5.20;;;1.40;;
12110;SDS011;6119;52.372;8.990;2024-01-15T07:52:22;4.57;;;1.77;;
12110;SDS011;6119;52.372;8.990;2024-01-15T07:55:09;4.13;;;1.33;;
12110;SDS011;6119;52.372;8.990;2024-01-15T07:57:57;2.73;;;1.27;;
12110;SDS011;6119;52.372;8.990;2024-01-15T08:00:59;3.63;;;1.20;;
12110;SDS011;6119;52.372;8.990;2024-01-15T08:03:46;3.57;;;1.07;;
12110;SDS011;6119;52.372;8.990;2024-01-15T08:06:33;2.60;;;1.30;;
12110;SDS011;6119;52.372;8.990;2024-01-15T08:09:20;1.20;;;1.10;;
12110;SDS011;6119;52.372;8.990;2024-01-15T08:12:07;2.33;;;1.17;;
12110;SDS011;6119;52.372;8.990;2024-01-15T08:14:56;4.53;;;1.20;;
12110;SDS011;6119;52.372;8.990;2024-01-15T08:17:43;4.77;;;1.73;;
12110;SDS011;6119;52.372;8.990;2024-01-15T08:20:30;5.37;;;1.33;;
12110;SDS011;6119;52.372;8.990;2024-01-15T08:23:16;2.13;;;1.20;;
12110;SDS011;6119;52.372;8.990;2024-01-15T08:26:03;4.50;;;1.27;;
12110;SDS011;6119;52.372;8.990;2024-01-15T08:28:49;4.30;;;1.53;;
12110;SDS011;6119;52.372;8.990;2024-01-15T08:31:37;3.63;;;1.30;;
12110;SDS011;6119;52.372;8.990;2024-01-15T08:34:25;2.27;;;1.87;;
12110;SDS011;6119;52.372;8.990;2024-01-15T08:37:15;6.10;;;2.00;;
12110;SDS011;6119;52.372;8.990;2024-01-15T08:40:02;6.73;;;1.37;;
12110;SDS011;6119;52.372;8.990;2024-01-15T08:42:50;5.43;;;1.73;;
12110;SDS011;6119;52.372;8.990;2024-01-15T08:45:36;3.53;;;1.30;;
12110;SDS011;6119;52.372;8.990;2024-01-15T08:48:24;5.37;;;1.53;;
12110;SDS011;6119;52.372;8.990;2024-01-15T08:51:12;5.43;;;1.90;;
12110;SDS011;6119;52.372;8.990;2024-01-15T08:53:59;5.90;;;1.40;;
12110;SDS011;6119;52.372;8.990;2024-01-15T08:56:45;2.53;;;1.50;;
12110;SDS011;6119;52.372;8.990;2024-01-15T08:59:32;8.57;;;3.60;;
12110;SDS011;6119;52.372;8.990;2024-01-15T09:02:18;3.30;;;1.60;;
12110;SDS011;6119;52.372;8.990;2024-01-15T09:05:07;1.63;;;1.47;;
12110;SDS011;6119;52.372;8.990;2024-01-15T09:07:54;9.53;;;4.50;;
12110;SDS011;6119;52.372;8.990;2024-01-15T09:10:42;15.47;;;5.27;;
12110;SDS011;6119;52.372;8.990;2024-01-15T09:13:29;17.83;;;6.60;;
12110;SDS011;6119;52.372;8.990;2024-01-15T09:16:15;12.90;;;5.67;;
12110;SDS011;6119;52.372;8.990;2024-01-15T09:19:03;3.57;;;1.80;;
12110;SDS011;6119;52.372;8.990;2024-01-15T09:21:51;5.37;;;1.53;;
12110;SDS011;6119;52.372;8.990;2024-01-15T09:24:39;3.37;;;1.80;;
12110;SDS011;6119;52.372;8.990;2024-01-15T09:27:26;4.07;;;1.70;;
12110;SDS011;6119;52.372;8.990;2024-01-15T09:30:13;3.70;;;1.50;;
12110;SDS011;6119;52.372;8.990;2024-01-15T09:33:00;3.20;;;1.50;;
12110;SDS011;6119;52.372;8.990;2024-01-15T09:35:47;3.60;;;1.30;;
12110;SDS011;6119;52.372;8.990;2024-01-15T09:38:35;2.30;;;1.50;;
12110;SDS011;6119;52.372;8.990;2024-01-15T09:41:22;2.13;;;1.20;;
12110;SDS011;6119;52.372;8.990;2024-01-15T09:44:10;1.80;;;1.30;;
12110;SDS011;6119;52.372;8.990;2024-01-15T09:46:58;4.97;;;1.37;;
12110;SDS011;6119;52.372;8.990;2024-01-15T09:49:45;2.63;;;1.27;;
12110;SDS011;6119;52.372;8.990;2024-01-15T09:52:32;1.80;;;1.17;;
12110;SDS011;6119;52.372;8.990;2024-01-15T09:55:22;3.90;;;1.23;;
12110;SDS011;6119;52.372;8.990;2024-01-15T09:58:09;3.90;;;1.17;;
12110;SDS011;6119;52.372;8.990;2024-01-15T10:00:57;4.00;;;1.20;;
12110;SDS011;6119;52.372;8.990;2024-01-15T10:03:50;2.20;;;1.37;;
12110;SDS011;6119;52.372;8.990;2024-01-15T10:06:38;1.73;;;1.00;;
12110;SDS011;6119;52.372;8.990;2024-01-15T10:09:26;2.10;;;1.60;;
12110;SDS011;6119;52.372;8.990;2024-01-15T10:12:14;15.70;;;6.00;;
12110;SDS011;6119;52.372;8.990;2024-01-15T10:15:02;11.67;;;4.10;;
12110;SDS011;6119;52.372;8.990;2024-01-15T10:17:50;29.77;;;8.73;;
12110;SDS011;6119;52.372;8.990;2024-01-15T10:20:36;5.80;;;2.47;;
12110;SDS011;6119;52.372;8.990;2024-01-15T10:23:23;3.33;;;2.00;;
12110;SDS011;6119;52.372;8.990;2024-01-15T10:26:10;4.47;;;1.63;;
12110;SDS011;6119;52.372;8.990;2024-01-15T10:29:02;9.80;;;3.33;;
12110;SDS011;6119;52.372;8.990;2024-01-15T10:31:49;4.37;;;1.90;;
12110;SDS011;6119;52.372;8.990;2024-01-15T10:34:39;8.77;;;4.30;;
12110;SDS011;6119;52.372;8.990;2024-01-15T10:37:28;7.73;;;2.30;;
12110;SDS011;6119;52.372;8.990;2024-01-15T10:40:18;12.27;;;5.07;;
12110;SDS011;6119;52.372;8.990;2024-01-15T10:43:05;7.27;;;1.50;;
12110;SDS011;6119;52.372;8.990;2024-01-15T10:45:54;3.73;;;1.80;;
12110;SDS011;6119;52.372;8.990;2024-01-15T10:48:41;1.83;;;1.40;;
12110;SDS011;6119;52.372;8.990;2024-01-15T10:51:28;2.87;;;1.43;;
12110;SDS011;6119;52.372;8.990;2024-01-15T10:54:15;3.77;;;2.20;;
12110;SDS011;6119;52.372;8.990;2024-01-15T10:57:03;3.53;;;2.10;;
12110;SDS011;6119;52.372;8.990;2024-01-15T10:59:50;7.50;;;1.83;;
12110;SDS011;6119;52.372;8.990;2024-01-15T11:02:38;6.47;;;1.87;;
12110;SDS011;6119;52.372;8.990;2024-01-15T11:05:25;4.07;;;1.60;;
12110;SDS011;6119;52.372;8.990;2024-01-15T11:08:12;6.07;;;2.20;;
12110;SDS011;6119;52.372;8.990;2024-01-15T11:11:03;8.47;;;1.83;;
12110;SDS011;6119;52.372;8.990;2024-01-15T11:13:50;9.17;;;2.13;;
12110;SDS011;6119;52.372;8.990;2024-01-15T11:16:53;3.57;;;1.80;;
12110;SDS011;6119;52.372;8.990;2024-01-15T11:19:45;3.03;;;1.50;;
12110;SDS011;6119;52.372;8.990;2024-01-15T11:25:42;5.20;;;1.40;;
12110;SDS011;6119;52.372;8.990;2024-01-15T11:34:51;6.70;;;1.40;;
12110;SDS011;6119;52.372;8.990;2024-01-15T11:37:58;4.85;;;2.10;;
12110;SDS011;6119;52.372;8.990;2024-01-15T11:40:45;6.53;;;1.63;;
12110;SDS011;6119;52.372;8.990;2024-01-15T11:43:33;7.00;;;1.70;;
12110;SDS011;6119;52.372;8.990;2024-01-15T11:46:21;8.10;;;1.60;;
12110;SDS011;6119;52.372;8.990;2024-01-15T11:49:07;4.33;;;1.47;;
12110;SDS011;6119;52.372;8.990;2024-01-15T11:52:05;4.93;;;1.33;;
12110;SDS011;6119;52.372;8.990;2024-01-15T11:54:59;4.93;;;1.30;;
12110;SDS011;6119;52.372;8.990;2024-01-15T11:57:50;3.87;;;1.47;;
12110;SDS011;6119;52.372;8.990;2024-01-15T12:00:42;7.27;;;1.60;;
12110;SDS011;6119;52.372;8.990;2024-01-15T12:03:31;8.57;;;2.00;;
12110;SDS011;6119;52.372;8.990;2024-01-15T12:06:19;4.43;;;1.30;;
12110;SDS011;6119;52.372;8.990;2024-01-15T12:09:09;4.43;;;1.00;;
12110;SDS011;6119;52.372;8.990;2024-01-15T12:11:57;6.00;;;1.17;;
12110;SDS011;6119;52.372;8.990;2024-01-15T12:14:51;6.40;;;2.40;;
12110;SDS011;6119;52.372;8.990;2024-01-15T12:17:38;5.73;;;3.07;;
12110;SDS011;6119;52.372;8.990;2024-01-15T12:20:25;6.10;;;2.07;;
12110;SDS011;6119;52.372;8.990;2024-01-15T12:23:12;8.60;;;2.47;;
12110;SDS011;6119;52.372;8.990;2024-01-15T12:26:01;5.80;;;2.30;;
12110;SDS011;6119;52.372;8.990;2024-01-15T12:28:49;4.20;;;1.40;;
12110;SDS011;6119;52.372;8.990;2024-01-15T12:31:38;12.83;;;5.10;;
12110;SDS011;6119;52.372;8.990;2024-01-15T12:34:28;2.87;;;1.77;;
12110;SDS011;6119;52.372;8.990;2024-01-15T12:37:17;4.63;;;1.40;;
12110;SDS011;6119;52.372;8.990;2024-01-15T12:40:05;2.87;;;0.87;;
12110;SDS011;6119;52.372;8.990;2024-01-15T12:42:54;6.27;;;1.37;;
12110;SDS011;6119;52.372;8.990;2024-01-15T12:45:41;1.87;;;1.10;;
12110;SDS011;6119;52.372;8.990;2024-01-15T12:48:28;5.43;;;1.27;;
12110;SDS011;6119;52.372;8.990;2024-01-15T12:51:15;3.13;;;1.53;;
12110;SDS011;6119;52.372;8.990;2024-01-15T12:54:02;4.30;;;1.40;;
12110;SDS011;6119;52.372;8.990;2024-01-15T12:56:49;8.30;;;1.40;;
12110;SDS011;6119;52.372;8.990;2024-01-15T12:59:37;3.83;;;1.40;;
12110;SDS011;6119;52.372;8.990;2024-01-15T13:02:24;8.70;;;1.90;;
12110;SDS011;6119;52.372;8.990;2024-01-15T13:05:11;6.33;;;1.63;;
12110;SDS011;6119;52.372;8.990;2024-01-15T13:08:00;3.97;;;1.33;;
12110;SDS011;6119;52.372;8.990;2024-01-15T13:10:48;4.30;;;2.20;;
12110;SDS011;6119;52.372;8.990;2024-01-15T13:13:36;3.00;;;1.40;;
12110;SDS011;6119;52.372;8.990;2024-01-15T13:16:24;3.83;;;1.50;;
12110;SDS011;6119;52.372;8.990;2024-01-15T13:19:13;4.37;;;1.80;;
12110;SDS011;6119;52.372;8.990;2024-01-15T13:22:00;6.03;;;1.27;;
12110;SDS011;6119;52.372;8.990;2024-01-15T13:24:48;3.57;;;1.20;;
12110;SDS011;6119;52.372;8.990;2024-01-15T13:27:35;3.87;;;1.30;;
12110;SDS011;6119;52.372;8.990;2024-01-15T13:30:24;2.13;;;1.30;;
12110;SDS011;6119;52.372;8.990;2024-01-15T13:33:12;4.03;;;1.43;;
12110;SDS011;6119;52.372;8.990;2024-01-15T13:35:59;7.00;;;1.47;;
12110;SDS011;6119;52.372;8.990;2024-01-15T13:38:47;2.90;;;1.50;;
12110;SDS011;6119;52.372;8.990;2024-01-15T13:41:34;4.07;;;1.40;;
12110;SDS011;6119;52.372;8.990;2024-01-15T13:44:20;0.90;;;0.83;;
12110;SDS011;6119;52.372;8.990;2024-01-15T13:47:09;1.90;;;1.20;;
12110;SDS011;6119;52.372;8.990;2024-01-15T13:49:57;2.27;;;1.03;;
12110;SDS011;6119;52.372;8.990;2024-01-15T13:52:45;1.47;;;0.87;;
12110;SDS011;6119;52.372;8.990;2024-01-15T13:55:32;2.93;;;1.23;;
12110;SDS011;6119;52.372;8.990;2024-01-15T13:58:18;1.83;;;1.20;;
12110;SDS011;6119;52.372;8.990;2024-01-15T14:01:06;2.23;;;1.37;;
12110;SDS011;6119;52.372;8.990;2024-01-15T14:03:53;2.37;;;1.80;;
12110;SDS011;6119;52.372;8.990;2024-01-15T14:06:42;1.80;;;1.40;;
12110;SDS011;6119;52.372;8.990;2024-01-15T14:09:29;5.93;;;1.50;;
12110;SDS011;6119;52.372;8.990;2024-01-15T14:12:16;5.43;;;1.67;;
12110;SDS011;6119;52.372;8.990;2024-01-15T14:15:03;2.70;;;1.80;;
12110;SDS011;6119;52.372;8.990;2024-01-15T14:17:51;3.83;;;1.30;;
12110;SDS011;6119;52.372;8.990;2024-01-15T14:20:38;3.87;;;1.60;;
12110;SDS011;6119;52.372;8.990;2024-01-15T14:23:26;7.57;;;1.47;;
12110;SDS011;6119;52.372;8.990;2024-01-15T14:26:13;1.87;;;1.10;;
12110;SDS011;6119;52.372;8.990;2024-01-15T14:29:01;3.37;;;1.30;;
12110;SDS011;6119;52.372;8.990;2024-01-15T14:31:48;2.90;;;1.33;;
12110;SDS011;6119;52.372;8.990;2024-01-15T14:34:35;1.67;;;1.20;;
12110;SDS011;6119;52.372;8.990;2024-01-15T14:37:23;3.97;;;1.30;;
12110;SDS011;6119;52.372;8.990;2024-01-15T14:40:11;2.83;;;1.00;;
12110;SDS011;6119;52.372;8.990;2024-01-15T14:43:02;2.87;;;1.00;;
12110;SDS011;6119;52.372;8.990;2024-01-15T14:45:49;4.27;;;1.17;;
12110;SDS011;6119;52.372;8.990;2024-01-15T14:48:35;3.43;;;1.10;;
12110;SDS011;6119;52.372;8.990;2024-01-15T14:51:22;3.03;;;1.20;;
12110;SDS011;6119;52.372;8.990;2024-01-15T14:54:09;1.03;;;0.73;;
12110;SDS011;6119;52.372;8.990;2024-01-15T14:56:57;2.73;;;1.07;;
12110;SDS011;6119;52.372;8.990;2024-01-15T14:59:44;3.10;;;1.17;;
12110;SDS011;6119;52.372;8.990;2024-01-15T15:02:31;5.53;;;1.03;;
12110;SDS011;6119;52.372;8.990;2024-01-15T15:05:19;0.93;;;0.90;;
12110;SDS011;6119;52.372;8.990;2024-01-15T15:08:06;1.67;;;0.60;;
12110;SDS011;6119;52.372;8.990;2024-01-15T15:10:53;0.80;;;0.80;;
12110;SDS011;6119;52.372;8.990;2024-01-15T15:13:43;1.00;;;0.90;;
12110;SDS011;6119;52.372;8.990;2024-01-15T15:16:30;3.30;;;1.27;;
12110;SDS011;6119;52.372;8.990;2024-01-15T15:19:17;1.20;;;1.10;;
12110;SDS011;6119;52.372;8.990;2024-01-15T15:22:04;3.13;;;1.30;;
12110;SDS011;6119;52.372;8.990;2024-01-15T15:24:52;1.20;;;1.10;;
12110;SDS011;6119;52.372;8.990;2024-01-15T15:27:40;2.10;;;1.10;;
12110;SDS011;6119;52.372;8.990;2024-01-15T15:30:28;4.13;;;1.30;;
12110;SDS011;6119;52.372;8.990;2024-01-15T15:33:14;2.43;;;1.23;;
12110;SDS011;6119;52.372;8.990;2024-01-15T15:36:03;2.80;;;1.20;;
12110;SDS011;6119;52.372;8.990;2024-01-15T15:38:50;1.80;;;1.27;;
12110;SDS011;6119;52.372;8.990;2024-01-15T15:41:43;2.40;;;1.80;;
12110;SDS011;6119;52.372;8.990;2024-01-15T15:44:31;4.13;;;1.20;;
12110;SDS011;6119;52.372;8.990;2024-01-15T15:47:19;1.90;;;1.30;;
12110;SDS011;6119;52.372;8.990;2024-01-15T15:50:07;1.33;;;1.00;;
12110;SDS011;6119;52.372;8.990;2024-01-15T15:52:54;1.20;;;1.10;;
12110;SDS011;6119;52.372;8.990;2024-01-15T15:55:40;1.03;;;1.00;;
12110;SDS011;6119;52.372;8.990;2024-01-15T15:58:27;2.50;;;1.10;;
12110;SDS011;6119;52.372;8.990;2024-01-15T16:01:14;1.10;;;1.00;;
12110;SDS011;6119;52.372;8.990;2024-01-15T16:04:03;4.10;;;1.40;;
12110;SDS011;6119;52.372;8.990;2024-01-15T16:06:50;1.13;;;1.00;;
12110;SDS011;6119;52.372;8.990;2024-01-15T16:09:37;2.80;;;1.03;;
12110;SDS011;6119;52.372;8.990;2024-01-15T16:12:24;2.27;;;1.10;;
12110;SDS011;6119;52.372;8.990;2024-01-15T16:15:16;1.23;;;1.00;;
12110;SDS011;6119;52.372;8.990;2024-01-15T16:18:04;1.20;;;1.10;;
12110;SDS011;6119;52.372;8.990;2024-01-15T16:21:13;4.53;;;1.13;;
12110;SDS011;6119;52.372;8.990;2024-01-15T16:24:20;1.60;;;0.67;;
12110;SDS011;6119;52.372;8.990;2024-01-15T16:27:26;3.47;;;1.00;;
12110;SDS011;6119;52.372;8.990;2024-01-15T16:30:13;2.17;;;1.03;;
12110;SDS011;6119;52.372;8.990;2024-01-15T16:33:14;1.60;;;1.07;;
12110;SDS011;6119;52.372;8.990;2024-01-15T16:36:00;2.13;;;1.03;;
12110;SDS011;6119;52.372;8.990;2024-01-15T16:38:48;2.17;;;0.93;;
12110;SDS011;6119;52.372;8.990;2024-01-15T16:41:35;25.07;;;6.73;;
12110;SDS011;6119;52.372;8.990;2024-01-15T16:44:23;2.93;;;1.60;;
12110;SDS011;6119;52.372;8.990;2024-01-15T16:47:10;3.43;;;1.17;;
12110;SDS011;6119;52.372;8.990;2024-01-15T16:49:56;3.40;;;1.30;;
12110;SDS011;6119;52.372;8.990;2024-01-15T16:52:43;3.80;;;1.13;;
12110;SDS011;6119;52.372;8.990;2024-01-15T16:55:31;4.50;;;1.40;;
12110;SDS011;6119;52.372;8.990;2024-01-15T16:58:18;2.87;;;1.30;;
12110;SDS011;6119;52.372;8.990;2024-01-15T17:01:05;2.37;;;2.13;;
12110;SDS011;6119;52.372;8.990;2024-01-15T17:03:52;4.40;;;1.57;;
12110;SDS011;6119;52.372;8.990;2024-01-15T17:06:39;4.47;;;1.47;;
12110;SDS011;6119;52.372;8.990;2024-01-15T17:09:25;5.70;;;1.03;;
12110;SDS011;6119;52.372;8.990;2024-01-15T17:12:14;3.60;;;1.37;;
12110;SDS011;6119;52.372;8.990;2024-01-15T17:15:00;1.67;;;0.90;;